Time;durP1;ratioP1;P1;durP2;ratioP2;P2;SDS_P1;SDS_P2;PMS_P1;PMS_P2;Temp;Humidity;BMP_temperature;BMP_pressure;BME280_temperature;BME280_humidity;BME280_pressure;Samples;Min_cycle;Max_cycle;Signal;HPM_P1;HPM_P2
2023/11/22 00:01:50;;;;;;;5.27;3.90;;;;;;;2.81;87.80;101882.00;5009305;28;20282;-79
2023/11/22 00:04:18;;;;;;;5.60;3.57;;;;;;;2.78;87.50;101885.53;5010379;28;20210;-78
2023/11/22 00:06:44;;;;;;;5.10;3.23;;;;;;;2.77;88.42;101889.06;5009889;28;20296;-78
2023/11/22 00:09:11;;;;;;;4.60;3.03;;;;;;;2.74;88.47;101886.47;5009700;28;20668;-79
2023/11/22 00:11:37;;;;;;;4.43;3.10;;;;;;;2.72;87.84;101888.22;5006788;28;20822;-79
2023/11/22 00:14:06;;;;;;;5.17;3.50;;;;;;;2.70;88.47;101891.75;5010836;28;20481;-79
2023/11/22 00:16:32;;;;;;;4.67;3.30;;;;;;;2.68;88.54;101901.47;5005110;28;20231;-79
2023/11/22 00:18:59;;;;;;;5.90;3.27;;;;;;;2.65;88.20;101907.63;5009142;28;20210;-79
2023/11/22 00:21:26;;;;;;;5.97;3.43;;;;;;;2.63;88.04;101913.78;5009217;28;20218;-78
2023/11/22 00:23:52;;;;;;;5.63;3.60;;;;;;;2.58;88.60;101908.56;5009731;28;20214;-78
2023/11/22 00:26:19;;;;;;;4.77;3.20;;;;;;;2.53;88.67;101920.88;5006250;28;20230;-80
2023/11/22 00:28:46;;;;;;;6.03;3.90;;;;;;;2.45;88.96;101917.47;5005552;28;20250;-79
2023/11/22 00:31:14;;;;;;;4.73;2.97;;;;;;;2.40;89.54;101916.63;5011365;28;20203;-80
2023/11/22 00:33:41;;;;;;;3.60;2.80;;;;;;;2.34;89.69;101908.78;5009731;28;20214;-79
2023/11/22 00:36:09;;;;;;;4.87;3.60;;;;;;;2.27;89.95;101900.09;5009314;28;20239;-79
2023/11/22 00:38:37;;;;;;;5.17;2.97;;;;;;;2.20;90.33;101908.06;5009907;28;20379;-78
2023/11/22 00:41:03;;;;;;;4.00;3.27;;;;;;;2.13;91.18;101917.75;5009109;28;20207;-78
2023/11/22 00:43:30;;;;;;;5.20;3.47;;;;;;;2.09;90.93;101911.66;5008580;28;20214;-78
2023/11/22 00:45:57;;;;;;;3.20;2.63;;;;;;;2.05;90.77;101917.81;5010035;28;20226;-79
2023/11/22 00:48:25;;;;;;;4.90;3.60;;;;;;;2.01;91.51;101920.47;5011153;28;20227;-78
2023/11/22 00:50:51;;;;;;;3.63;2.87;;;;;;;1.98;92.17;101910.84;5006885;28;20203;-78
2023/11/22 00:53:18;;;;;;;7.33;3.63;;;;;;;1.98;92.37;101912.59;5005403;28;20246;-78
2023/11/22 00:55:44;;;;;;;4.40;3.47;;;;;;;1.97;92.92;101924.88;5009231;28;20578;-78
2023/11/22 00:58:11;;;;;;;4.33;3.30;;;;;;;1.97;92.40;101924.03;5008483;28;20209;-78
2023/11/22 01:00:38;;;;;;;6.30;3.73;;;;;;;1.97;92.74;101914.34;5009617;28;20272;-78
2023/11/22 01:03:05;;;;;;;6.53;3.47;;;;;;;1.97;93.36;101919.63;5003209;28;20199;-78
2023/11/22 01:05:33;;;;;;;5.10;3.63;;;;;;;1.97;93.46;101924.88;5006427;28;20214;-78
2023/11/22 01:07:59;;;;;;;6.13;3.57;;;;;;;1.97;93.78;101927.50;5008290;28;20238;-79
2023/11/22 01:10:26;;;;;;;5.83;3.70;;;;;;;1.95;93.69;101937.19;5006018;28;20302;-79
2023/11/22 01:12:53;;;;;;;5.40;3.23;;;;;;;1.93;93.62;101943.31;5007957;28;20242;-78
2023/11/22 01:15:19;;;;;;;7.60;3.53;;;;;;;1.91;93.14;101945.09;5007549;28;20598;-79
2023/11/22 01:17:46;;;;;;;6.27;3.43;;;;;;;1.90;93.63;101943.34;5009754;28;20246;-79
2023/11/22 01:20:13;;;;;;;4.60;3.50;;;;;;;1.88;93.81;101956.47;5008020;28;20257;-78
2023/11/22 01:22:42;;;;;;;6.17;3.40;;;;;;;1.86;93.25;101957.38;5009321;28;20213;-78
2023/11/22 01:25:09;;;;;;;5.80;4.40;;;;;;;1.84;93.45;101970.50;5004484;28;20211;-79
2023/11/22 01:27:35;;;;;;;4.53;3.57;;;;;;;1.82;93.67;101966.16;5001696;28;20293;-78
2023/11/22 01:30:03;;;;;;;5.53;3.13;;;;;;;1.79;93.78;101968.81;5004191;28;20896;-78
2023/11/22 01:32:30;;;;;;;7.87;3.30;;;;;;;1.77;94.04;101974.06;5008258;28;20219;-78
2023/11/22 01:34:57;;;;;;;4.67;3.80;;;;;;;1.74;94.24;101964.47;5007818;28;20211;-78
2023/11/22 01:37:24;;;;;;;4.93;3.87;;;;;;;1.74;93.79;101979.34;5006117;28;20272;-77
2023/11/22 01:39:52;;;;;;;4.57;3.80;;;;;;;1.71;94.13;101982.84;5009598;28;20214;-78
2023/11/22 01:42:20;;;;;;;4.63;3.13;;;;;;;1.70;94.17;101988.13;5005507;28;20203;-78
2023/11/22 01:44:47;;;;;;;5.90;3.80;;;;;;;1.67;93.97;101977.63;5009600;28;20723;-78
2023/11/22 01:47:15;;;;;;;3.97;3.53;;;;;;;1.65;94.58;101985.50;5008160;28;20765;-77
2023/11/22 01:49:42;;;;;;;5.37;4.00;;;;;;;1.63;93.99;101975.88;5010258;28;20688;-78
2023/11/22 01:52:08;;;;;;;5.23;3.40;;;;;;;1.60;94.61;101973.31;5007642;28;20211;-78
2023/11/22 01:54:36;;;;;;;4.33;3.50;;;;;;;1.59;95.34;101975.06;5008913;28;20217;-78
2023/11/22 01:57:07;;;;;;;5.13;4.10;;;;;;;1.58;94.74;101970.69;5007350;28;20223;-78
2023/11/22 01:59:34;;;;;;;5.23;3.40;;;;;;;1.57;95.53;101965.44;5004311;28;20222;-78
2023/11/22 02:02:01;;;;;;;5.50;3.37;;;;;;;1.52;95.19;101962.81;5005669;28;20218;-78
2023/11/22 02:04:28;;;;;;;6.03;4.07;;;;;;;1.49;96.05;101961.97;5006855;28;20294;-78
2023/11/22 02:06:55;;;;;;;6.60;3.70;;;;;;;1.48;96.30;101971.59;4997391;28;20231;-78
2023/11/22 02:09:22;;;;;;;4.20;3.80;;;;;;;1.46;96.63;101977.72;5009907;28;20690;-78
2023/11/22 02:11:49;;;;;;;5.70;3.47;;;;;;;1.42;96.35;101982.13;5007940;28;20206;-78
2023/11/22 02:14:17;;;;;;;5.57;4.00;;;;;;;1.38;97.08;101977.78;5007195;28;20230;-79
2023/11/22 02:16:43;;;;;;;6.00;3.97;;;;;;;1.34;96.72;101978.66;5008597;28;20223;-78
2023/11/22 02:19:15;;;;;;;4.97;3.73;;;;;;;1.33;96.67;101979.53;5004804;28;20214;-78
2023/11/22 02:21:41;;;;;;;4.70;3.60;;;;;;;1.31;96.95;101981.28;5009487;28;20210;-78
2023/11/22 02:24:10;;;;;;;8.03;3.47;;;;;;;1.28;97.88;101990.06;5003465;28;20211;-78
2023/11/22 02:26:39;;;;;;;6.30;3.70;;;;;;;1.27;97.83;101990.94;5005352;28;20227;-78
2023/11/22 02:29:05;;;;;;;5.20;3.37;;;;;;;1.26;98.23;101985.69;5006367;28;20230;-77
2023/11/22 02:31:33;;;;;;;5.53;3.50;;;;;;;1.25;98.86;101979.59;5000465;28;20643;-77
2023/11/22 02:34:00;;;;;;;5.37;4.00;;;;;;;1.22;98.79;101984.84;5003013;28;20218;-78
2023/11/22 02:36:26;;;;;;;5.87;3.67;;;;;;;1.21;99.50;101979.59;5007210;28;20230;-77
2023/11/22 02:38:54;;;;;;;6.20;3.17;;;;;;;1.20;99.49;101981.34;5010322;28;20203;-78
2023/11/22 02:41:22;;;;;;;5.37;3.63;;;;;;;1.19;99.75;101984.84;5003221;28;20203;-78
2023/11/22 02:43:48;;;;;;;5.47;3.60;;;;;;;1.19;100.00;101976.97;5004052;28;20302;-77
2023/11/22 02:46:14;;;;;;;5.40;3.40;;;;;;;1.19;100.00;101982.22;5002062;28;20234;-78
2023/11/22 02:48:41;;;;;;;4.97;3.70;;;;;;;1.19;100.00;101987.47;5008114;28;20231;-78
2023/11/22 02:51:07;;;;;;;6.70;3.73;;;;;;;1.18;100.00;101987.47;5005170;28;20208;-78
2023/11/22 02:53:34;;;;;;;4.57;3.37;;;;;;;1.16;100.00;101991.84;5012511;28;20210;-78
2023/11/22 02:56:01;;;;;;;7.37;3.43;;;;;;;1.13;100.00;101997.97;5012640;28;20806;-78
2023/11/22 02:58:30;;;;;;;5.83;3.70;;;;;;;1.12;100.00;101996.22;5013306;28;20805;-78
2023/11/22 03:00:57;;;;;;;5.83;3.50;;;;;;;1.09;100.00;102000.59;5010349;28;20691;-78
2023/11/22 03:03:23;;;;;;;6.43;3.30;;;;;;;1.06;100.00;102001.53;5012512;28;20230;-78
2023/11/22 03:05:50;;;;;;;5.53;3.93;;;;;;;1.04;100.00;102019.00;5013221;28;20814;-78
2023/11/22 03:08:17;;;;;;;5.47;3.60;;;;;;;1.01;100.00;102022.50;5008092;28;20226;-78
2023/11/22 03:10:43;;;;;;;5.20;3.30;;;;;;;0.99;100.00;102037.38;5011797;28;20223;-78
2023/11/22 03:13:10;;;;;;;5.27;3.57;;;;;;;0.98;100.00;102029.50;5012282;28;20211;-78
2023/11/22 03:15:38;;;;;;;5.63;4.03;;;;;;;0.94;100.00;102039.13;5010607;28;20229;-77
2023/11/22 03:18:06;;;;;;;5.80;3.53;;;;;;;0.91;100.00;102040.88;5015004;28;20782;-78
2023/11/22 03:20:32;;;;;;;5.60;3.43;;;;;;;0.90;100.00;102052.25;5007807;28;20202;-77
2023/11/22 03:22:59;;;;;;;6.87;4.07;;;;;;;0.88;100.00;102051.41;5014041;28;20221;-79
2023/11/22 03:25:26;;;;;;;7.10;3.97;;;;;;;0.84;100.00;102058.38;5011051;28;20257;-78
2023/11/22 03:27:53;;;;;;;4.77;3.33;;;;;;;0.82;100.00;102075.88;5014327;28;20722;-77
2023/11/22 03:30:22;;;;;;;5.30;3.70;;;;;;;0.80;100.00;102068.88;5013094;28;20214;-77
2023/11/22 03:32:50;;;;;;;6.70;4.23;;;;;;;0.80;100.00;102068.88;5015253;28;20538;-78
2023/11/22 03:35:17;;;;;;;7.87;3.80;;;;;;;0.79;100.00;102075.00;5008114;28;20674;-78
2023/11/22 03:37:44;;;;;;;7.50;4.17;;;;;;;0.76;100.00;102073.25;5011907;28;20298;-78
2023/11/22 03:40:11;;;;;;;5.77;3.83;;;;;;;0.74;100.00;102061.00;5014491;28;20218;-79
2023/11/22 03:42:40;;;;;;;5.77;3.90;;;;;;;0.72;100.00;102062.78;5011268;28;20294;-79
2023/11/22 03:45:07;;;;;;;6.70;3.90;;;;;;;0.71;100.00;102067.16;5015052;28;20270;-78
2023/11/22 03:47:36;;;;;;;6.50;4.30;;;;;;;0.69;100.00;102082.88;5008552;28;20345;-79
2023/11/22 03:50:05;;;;;;;6.87;3.97;;;;;;;0.64;100.00;102084.63;5007144;28;20213;-79
2023/11/22 03:52:32;;;;;;;6.93;3.63;;;;;;;0.62;100.00;102091.59;5009146;28;20221;-78
2023/11/22 03:54:58;;;;;;;5.60;3.97;;;;;;;0.60;100.00;102085.47;5012613;28;20213;-78
2023/11/22 03:57:25;;;;;;;6.27;3.83;;;;;;;0.61;100.00;102092.47;5015416;28;20712;-78
2023/11/22 03:59:51;;;;;;;7.90;4.17;;;;;;;0.57;100.00;102085.47;5015311;28;20211;-79
2023/11/22 04:02:17;;;;;;;7.20;3.90;;;;;;;0.58;100.00;102086.34;5012367;28;20230;-78
2023/11/22 04:04:45;;;;;;;5.60;3.80;;;;;;;0.55;100.00;102097.69;5007816;28;20207;-78
2023/11/22 04:07:13;;;;;;;5.70;4.10;;;;;;;0.54;100.00;102087.22;5011766;28;20230;-78
2023/11/22 04:09:39;;;;;;;6.10;3.83;;;;;;;0.54;100.00;102095.06;5011840;28;20588;-78
2023/11/22 04:12:06;;;;;;;5.27;4.00;;;;;;;0.52;100.00;102084.63;5013812;28;20301;-78
2023/11/22 04:14:33;;;;;;;5.43;3.60;;;;;;;0.51;100.00;102090.72;5004313;28;20290;-78
2023/11/22 04:16:59;;;;;;;5.57;3.60;;;;;;;0.51;100.00;102095.09;5011909;28;20710;-78
2023/11/22 04:19:25;;;;;;;6.50;3.83;;;;;;;0.49;100.00;102100.34;5008371;28;20207;-78
2023/11/22 04:21:54;;;;;;;6.53;3.73;;;;;;;0.49;100.00;102110.81;5012788;28;20210;-78
2023/11/22 04:24:21;;;;;;;7.50;3.70;;;;;;;0.46;100.00;102105.56;5011073;28;20294;-78
2023/11/22 04:26:48;;;;;;;5.53;3.50;;;;;;;0.45;100.00;102111.69;5012461;28;20226;-80
2023/11/22 04:29:14;;;;;;;7.07;3.77;;;;;;;0.43;100.00;102110.81;5009261;28;20227;-79
2023/11/22 04:31:41;;;;;;;6.53;3.43;;;;;;;0.42;100.00;102118.66;5004615;28;20203;-77
2023/11/22 04:34:07;;;;;;;4.77;3.60;;;;;;;0.40;100.00;102121.28;5008292;28;20223;-79
2023/11/22 04:36:34;;;;;;;5.40;3.00;;;;;;;0.37;100.00;102123.88;5010975;28;20230;-77
2023/11/22 04:39:00;;;;;;;4.70;3.30;;;;;;;0.36;100.00;102129.16;5010914;28;20206;-79
2023/11/22 04:41:28;;;;;;;5.17;3.40;;;;;;;0.34;100.00;102131.75;5011681;28;20562;-78
2023/11/22 04:43:55;;;;;;;4.97;3.10;;;;;;;0.31;100.00;102126.50;5009970;28;20210;-78
2023/11/22 04:46:21;;;;;;;4.90;3.20;;;;;;;0.30;100.00;102127.38;5008564;28;20234;-77
2023/11/22 04:48:50;;;;;;;5.90;3.67;;;;;;;0.29;100.00;102123.88;5011507;28;20238;-78
2023/11/22 04:51:17;;;;;;;4.53;3.50;;;;;;;0.27;100.00;102123.00;5006634;28;20742;-78
2023/11/22 04:53:45;;;;;;;4.07;3.10;;;;;;;0.28;100.00;102126.50;5006678;28;20207;-78
2023/11/22 04:56:11;;;;;;;4.37;3.10;;;;;;;0.26;100.00;102125.63;5008091;28;20227;-78
2023/11/22 04:58:39;;;;;;;5.30;3.27;;;;;;;0.24;100.00;102130.84;5010927;28;20687;-79
2023/11/22 05:01:06;;;;;;;4.90;3.50;;;;;;;0.25;100.00;102136.97;5009566;28;20603;-78
2023/11/22 05:03:32;;;;;;;3.97;3.37;;;;;;;0.22;100.00;102137.81;5008478;28;20230;-78
2023/11/22 05:05:58;;;;;;;4.57;3.10;;;;;;;0.22;100.00;102139.56;5009368;28;20617;-77
2023/11/22 05:08:25;;;;;;;5.60;3.20;;;;;;;0.19;100.00;102144.81;5007593;28;20731;-78
2023/11/22 05:10:51;;;;;;;7.00;3.50;;;;;;;0.17;100.00;102143.94;5009119;28;20217;-78
2023/11/22 05:13:18;;;;;;;3.90;2.93;;;;;;;0.14;100.00;102136.94;5011692;28;20207;-79
2023/11/22 05:15:46;;;;;;;4.97;3.37;;;;;;;0.11;100.00;102136.94;5008727;28;20274;-79
2023/11/22 05:18:13;;;;;;;5.87;3.27;;;;;;;0.10;100.00;102131.69;5011625;28;20257;-78
2023/11/22 05:20:39;;;;;;;6.20;3.30;;;;;;;0.09;100.00;102141.28;5005950;28;20211;-78
2023/11/22 05:23:06;;;;;;;5.83;3.10;;;;;;;0.06;100.00;102143.03;5009349;28;20207;-77
2023/11/22 05:25:32;;;;;;;5.60;3.20;;;;;;;0.04;100.00;102137.78;5009651;28;20211;-78
2023/11/22 05:27:59;;;;;;;5.43;3.83;;;;;;;0.02;100.00;102136.00;5008856;28;20207;-78
2023/11/22 05:30:26;;;;;;;5.00;3.20;;;;;;;-0.01;100.00;102134.28;5006720;28;20231;-78
2023/11/22 05:32:54;;;;;;;6.17;4.13;;;;;;;-0.04;100.00;102136.88;5009395;28;20238;-78
2023/11/22 05:35:20;;;;;;;6.40;3.43;;;;;;;-0.07;100.00;102129.88;5009140;28;20207;-78
2023/11/22 05:37:47;;;;;;;5.23;3.77;;;;;;;-0.07;100.00;102136.88;5008384;28;20218;-78
2023/11/22 05:40:15;;;;;;;5.13;3.50;;;;;;;-0.10;100.00;102140.34;5007479;28;20207;-79
2023/11/22 05:42:42;;;;;;;4.30;3.00;;;;;;;-0.13;100.00;102148.19;5007065;28;20761;-77
2023/11/22 05:45:09;;;;;;;5.27;3.23;;;;;;;-0.15;100.00;102144.69;5010392;28;20277;-78
2023/11/22 05:47:36;;;;;;;4.70;3.43;;;;;;;-0.15;100.00;102141.19;5008314;28;20718;-78
2023/11/22 05:50:05;;;;;;;3.97;2.80;;;;;;;-0.19;100.00;102137.69;5008579;28;20223;-77
2023/11/22 05:52:31;;;;;;;5.67;3.23;;;;;;;-0.20;100.00;102142.94;5008764;28;20209;-78
2023/11/22 05:54:57;;;;;;;5.00;3.40;;;;;;;-0.22;100.00;102145.53;5005943;28;20211;-78
2023/11/22 05:57:24;;;;;;;5.57;3.00;;;;;;;-0.24;100.00;102142.03;5007708;28;20227;-78
2023/11/22 05:59:51;;;;;;;7.77;3.50;;;;;;;-0.25;100.00;102156.00;5007178;28;20202;-79
2023/11/22 06:02:17;;;;;;;5.13;3.70;;;;;;;-0.26;100.00;102162.09;5010481;28;20215;-79
2023/11/22 06:04:44;;;;;;;4.90;3.30;;;;;;;-0.29;100.00;102169.94;5005651;28;20210;-78
2023/11/22 06:07:12;;;;;;;4.70;2.87;;;;;;;-0.31;100.00;102176.88;5007268;28;20757;-79
2023/11/22 06:09:38;;;;;;;6.80;3.50;;;;;;;-0.33;100.00;102191.72;5005587;28;20227;-77
2023/11/22 06:12:05;;;;;;;4.70;3.40;;;;;;;-0.35;100.00;102198.66;5003641;28;20211;-78
2023/11/22 06:14:32;;;;;;;5.53;3.40;;;;;;;-0.37;100.00;102210.91;5008001;28;20211;-77
2023/11/22 06:17:00;;;;;;;5.07;3.47;;;;;;;-0.41;100.00;102206.50;5005050;28;20816;-78
2023/11/22 06:19:28;;;;;;;5.50;3.63;;;;;;;-0.43;100.00;102213.47;5007226;28;20214;-77
2023/11/22 06:21:55;;;;;;;5.13;3.37;;;;;;;-0.44;100.00;102222.19;5010482;28;20306;-78
2023/11/22 06:24:23;;;;;;;6.17;3.80;;;;;;;-0.49;100.00;102211.69;5009211;28;20318;-77
2023/11/22 06:26:50;;;;;;;6.13;4.07;;;;;;;-0.51;100.00;102217.75;5004060;28;20233;-79
2023/11/22 06:29:16;;;;;;;6.43;4.40;;;;;;;-0.57;100.00;102217.75;5008484;28;20230;-79
2023/11/22 06:31:43;;;;;;;6.60;4.43;;;;;;;-0.62;100.00;102222.94;5008309;28;20214;-79
2023/11/22 06:34:09;;;;;;;8.83;4.50;;;;;;;-0.66;100.00;102221.16;5008135;28;20226;-77
2023/11/22 06:36:36;;;;;;;7.30;4.30;;;;;;;-0.69;100.00;102226.34;5003060;28;20671;-77
2023/11/22 06:39:04;;;;;;;7.10;4.40;;;;;;;-0.71;100.00;102221.09;5009047;28;20723;-78
2023/11/22 06:41:31;;;;;;;8.33;5.37;;;;;;;-0.73;100.00;102225.47;5006732;28;20264;-81
2023/11/22 06:43:58;;;;;;;9.33;5.80;;;;;;;-0.74;100.00;102223.72;5006735;28;20199;-80
2023/11/22 06:46:25;;;;;;;12.07;7.20;;;;;;;-0.74;100.00;102226.34;5005823;28;20230;-79
2023/11/22 06:48:51;;;;;;;11.43;6.43;;;;;;;-0.73;100.00;102225.47;5005464;28;20207;-82
2023/11/22 06:51:18;;;;;;;8.60;6.07;;;;;;;-0.72;100.00;102211.50;5010204;28;20202;-81
2023/11/22 06:53:45;;;;;;;6.97;5.27;;;;;;;-0.72;100.00;102208.03;5008938;28;20711;-82
2023/11/22 06:56:12;;;;;;;6.83;4.50;;;;;;;-0.71;100.00;102201.91;5008188;28;20218;-81
2023/11/22 06:58:40;;;;;;;9.20;4.53;;;;;;;-0.71;100.00;102205.41;5004793;28;20241;-81
2023/11/22 07:01:07;;;;;;;6.37;3.93;;;;;;;-0.70;100.00;102194.09;5006919;28;20207;-80
2023/11/22 07:03:33;;;;;;;6.07;4.20;;;;;;;-0.68;100.00;102190.59;5009154;28;20222;-82
2023/11/22 07:06:00;;;;;;;8.70;4.30;;;;;;;-0.66;100.00;102191.50;5008988;28;20223;-82
2023/11/22 07:08:28;;;;;;;6.53;4.03;;;;;;;-0.64;100.00;102202.84;5007334;28;20222;-82
2023/11/22 07:10:56;;;;;;;6.90;3.90;;;;;;;-0.64;100.00;102197.63;5008349;28;20309;-82
2023/11/22 07:13:24;;;;;;;7.23;4.07;;;;;;;-0.63;100.00;102204.59;5007657;28;20583;-83
2023/11/22 07:15:52;;;;;;;5.90;3.70;;;;;;;-0.63;100.00;102212.44;5009309;28;20222;-81
2023/11/22 07:18:18;;;;;;;4.97;3.13;;;;;;;-0.64;100.00;102200.22;5008385;28;20215;-82
2023/11/22 07:20:46;;;;;;;6.20;3.63;;;;;;;-0.67;100.00;102208.06;5006154;28;20211;-82
2023/11/22 07:23:15;;;;;;;5.37;3.50;;;;;;;-0.68;100.00;102203.69;5007335;28;20199;-82
2023/11/22 07:25:43;;;;;;;4.90;3.00;;;;;;;-0.70;100.00;102196.69;5005849;28;20257;-79
2023/11/22 07:28:09;;;;;;;7.20;3.50;;;;;;;-0.70;100.00;102201.94;5006212;28;20663;-83
2023/11/22 07:30:38;;;;;;;5.97;3.73;;;;;;;-0.70;100.00;102190.59;5006896;28;20230;-80
2023/11/22 07:33:06;;;;;;;4.90;4.03;;;;;;;-0.68;100.00;102187.97;5007148;28;20743;-80
2023/11/22 07:35:33;;;;;;;6.53;4.03;;;;;;;-0.67;100.00;102190.63;5006724;28;20203;-80
2023/11/22 07:37:59;;;;;;;6.30;4.27;;;;;;;-0.63;100.00;102184.53;5006355;28;20222;-81
2023/11/22 07:40:26;;;;;;;7.47;4.67;;;;;;;-0.60;100.00;102181.06;5008953;28;20317;-81
2023/11/22 07:42:52;;;;;;;7.73;4.03;;;;;;;-0.56;100.00;102172.38;5011226;28;20203;-80
2023/11/22 07:45:19;;;;;;;5.60;3.83;;;;;;;-0.54;100.00;102176.78;5013303;28;20214;-81
2023/11/22 07:47:46;;;;;;;5.13;3.77;;;;;;;-0.48;100.00;102174.19;5012037;28;20226;-82
2023/11/22 07:50:15;;;;;;;8.63;4.37;;;;;;;-0.42;100.00;102183.81;5011596;28;20245;-81
2023/11/22 07:52:41;;;;;;;7.90;4.00;;;;;;;-0.38;100.00;102190.84;5012375;28;20207;-82
2023/11/22 07:55:09;;;;;;;5.30;3.93;;;;;;;-0.36;100.00;102178.63;5011456;28;20671;-83
2023/11/22 07:57:36;;;;;;;7.07;3.90;;;;;;;-0.32;100.00;102187.34;5011831;28;20226;-81
2023/11/22 08:00:06;;;;;;;5.10;3.30;;;;;;;-0.30;100.00;102196.97;5008916;28;20218;-82
2023/11/22 08:02:33;;;;;;;5.53;3.37;;;;;;;-0.27;100.00;102206.59;5009153;28;20203;-81
2023/11/22 08:05:01;;;;;;;6.70;3.20;;;;;;;-0.24;100.00;102209.22;5008820;28;20218;-80
2023/11/22 08:07:29;;;;;;;4.80;3.17;;;;;;;-0.21;100.00;102209.25;5008935;28;20235;-82
2023/11/22 08:09:56;;;;;;;4.10;2.83;;;;;;;-0.19;100.00;102221.50;5009292;28;20717;-80
2023/11/22 08:12:23;;;;;;;5.10;2.80;;;;;;;-0.15;100.00;102209.25;5009856;28;20674;-80
2023/11/22 08:14:49;;;;;;;5.03;3.03;;;;;;;-0.12;100.00;102201.44;5011513;28;20214;-81
2023/11/22 08:17:16;;;;;;;6.23;3.13;;;;;;;-0.06;100.00;102222.44;5010051;28;20506;-82
2023/11/22 08:19:42;;;;;;;4.47;2.87;;;;;;;-0.03;100.00;102225.94;5009998;28;20209;-82
2023/11/22 08:22:09;;;;;;;3.60;2.63;;;;;;;-0.03;100.00;102231.19;5011665;28;20215;-82
2023/11/22 08:24:37;;;;;;;4.07;2.60;;;;;;;-0.05;100.00;102232.91;5010251;28;20203;-79
2023/11/22 08:27:04;;;;;;;5.07;3.50;;;;;;;-0.03;100.00;102241.66;5012066;28;20280;-80
2023/11/22 08:29:31;;;;;;;4.83;3.30;;;;;;;-0.03;100.00;102244.28;5006219;28;20230;-81
2023/11/22 08:31:57;;;;;;;3.73;2.43;;;;;;;0.02;100.00;102257.38;5007491;28;20205;-82
2023/11/22 08:34:24;;;;;;;4.70;2.90;;;;;;;0.05;100.00;102259.13;5010995;28;20212;-82
2023/11/22 08:36:50;;;;;;;4.77;2.70;;;;;;;0.09;100.00;102272.25;5009611;28;20223;-83
2023/11/22 08:39:17;;;;;;;6.47;3.43;;;;;;;0.11;100.00;102285.38;5009926;28;20206;-83
2023/11/22 08:41:45;;;;;;;4.70;3.40;;;;;;;0.13;100.00;102283.66;5010075;28;20203;-80
2023/11/22 08:44:11;;;;;;;5.33;3.07;;;;;;;0.16;100.00;102297.66;5008335;28;20217;-81
2023/11/22 08:46:38;;;;;;;6.53;3.60;;;;;;;0.21;100.00;102298.53;5011244;28;20230;-83
2023/11/22 08:49:04;;;;;;;5.80;3.60;;;;;;;0.25;100.00;102302.03;5006225;28;20218;-81
2023/11/22 08:51:31;;;;;;;5.00;2.93;;;;;;;0.30;100.00;102295.97;5007492;28;20225;-82
2023/11/22 08:53:57;;;;;;;5.07;2.83;;;;;;;0.35;100.00;102285.50;5009797;28;20203;-82
2023/11/22 08:56:24;;;;;;;4.10;3.17;;;;;;;0.39;100.00;102274.16;5011281;28;20234;-81
2023/11/22 08:58:54;;;;;;;4.57;3.20;;;;;;;0.41;100.00;102263.69;5006195;28;20747;-81
2023/11/22 09:01:21;;;;;;;4.10;3.53;;;;;;;0.40;100.00;102264.53;5011315;28;20207;-81
2023/11/22 09:03:50;;;;;;;4.23;3.13;;;;;;;0.42;100.00;102268.06;5005179;28;21439;-82
2023/11/22 09:06:17;;;;;;;4.53;3.37;;;;;;;0.44;100.00;102267.19;5005970;28;20223;-82
2023/11/22 09:08:43;;;;;;;3.90;3.20;;;;;;;0.46;100.00;102262.84;5009874;28;20297;-82
2023/11/22 09:11:10;;;;;;;5.50;3.80;;;;;;;0.52;100.00;102262.00;5012030;28;20226;-81
2023/11/22 09:13:36;;;;;;;5.37;3.57;;;;;;;0.54;100.00;102252.34;5007148;28;20676;-78
2023/11/22 09:16:05;;;;;;;5.70;3.90;;;;;;;0.55;100.00;102265.47;5008519;28;20223;-82
2023/11/22 09:18:32;;;;;;;4.47;3.37;;;;;;;0.56;100.00;102272.47;5012138;28;20326;-82
2023/11/22 09:20:59;;;;;;;5.50;3.70;;;;;;;0.60;100.00;102283.84;5001121;28;20820;-82
2023/11/22 09:23:26;;;;;;;5.60;3.80;;;;;;;0.61;99.86;102275.13;5005088;28;20204;-79
2023/11/22 09:25:52;;;;;;;7.23;3.70;;;;;;;0.67;99.83;102286.50;5005426;28;20281;-81
2023/11/22 09:28:19;;;;;;;5.77;3.50;;;;;;;0.65;99.24;102279.50;5011523;28;20214;-80
2023/11/22 09:30:48;;;;;;;5.93;3.73;;;;;;;0.69;98.78;102276.03;5005932;28;20230;-79
2023/11/22 09:33:16;;;;;;;7.27;4.30;;;;;;;0.75;98.42;102273.41;5004673;28;20207;-80
2023/11/22 09:35:45;;;;;;;6.87;4.43;;;;;;;0.80;97.77;102279.56;5007491;28;20218;-79
2023/11/22 09:38:12;;;;;;;5.23;4.07;;;;;;;0.79;96.67;102282.16;5010892;28;20750;-82
2023/11/22 09:40:43;;;;;;;6.90;4.10;;;;;;;0.80;96.17;102278.66;5008222;28;20612;-79
2023/11/22 09:43:10;;;;;;;6.00;4.37;;;;;;;0.84;95.75;102262.09;5010407;28;20289;-82
2023/11/22 09:45:38;;;;;;;7.67;4.10;;;;;;;0.88;95.15;102258.59;5009122;28;20199;-82
2023/11/22 09:48:12;;;;;;;6.37;4.00;;;;;;;0.91;94.12;102255.97;5004480;28;20195;-83
2023/11/22 09:50:43;;;;;;;6.67;4.00;;;;;;;0.94;90.67;102250.72;5009039;28;20224;-83
2023/11/22 09:53:19;;;;;;;6.10;4.00;;;;;;;0.95;90.66;102240.22;5004360;28;20206;-83
2023/11/22 09:55:46;;;;;;;7.20;4.47;;;;;;;1.01;89.17;102228.88;5011956;28;20588;-82
2023/11/22 09:58:14;;;;;;;6.80;4.10;;;;;;;1.00;88.67;102224.50;5007052;28;20203;-81
2023/11/22 10:00:41;;;;;;;8.47;4.63;;;;;;;0.97;88.05;102209.63;5010546;28;20202;-81
2023/11/22 10:03:08;;;;;;;5.80;4.40;;;;;;;1.00;88.17;102222.75;5007345;28;20675;-81
2023/11/22 10:05:34;;;;;;;6.57;4.60;;;;;;;1.04;88.71;102242.00;5010461;28;20210;-81
2023/11/22 10:08:03;;;;;;;7.50;5.33;;;;;;;1.09;87.78;102256.00;5005641;28;20219;-85
2023/11/22 10:10:33;;;;;;;6.63;4.70;;;;;;;1.04;85.87;102257.75;5008000;28;20229;-82
2023/11/22 10:13:01;;;;;;;8.43;4.70;;;;;;;0.99;84.87;102257.75;5008441;28;20203;-83
2023/11/22 10:15:29;;;;;;;7.17;4.33;;;;;;;0.96;84.49;102260.34;5010889;28;20205;-84
2023/11/22 10:17:57;;;;;;;6.03;4.33;;;;;;;0.97;83.89;102261.22;5007688;28;20206;-83
2023/11/22 10:20:25;;;;;;;6.33;4.33;;;;;;;1.03;82.04;102266.50;5010223;28;20245;-82
2023/11/22 10:22:53;;;;;;;6.47;4.27;;;;;;;1.00;80.88;102272.59;5007912;28;20550;-82
2023/11/22 10:25:22;;;;;;;7.03;4.50;;;;;;;1.06;80.76;102277.00;5009903;28;20214;-82
2023/11/22 10:27:51;;;;;;;6.83;4.20;;;;;;;1.17;80.64;102274.38;5008422;28;20231;-83
2023/11/22 10:30:18;;;;;;;7.10;4.30;;;;;;;1.23;80.04;102277.91;5002948;28;20231;-83
2023/11/22 10:32:45;;;;;;;6.03;4.13;;;;;;;1.30;79.87;102284.88;5008905;28;20222;-81
2023/11/22 10:35:14;;;;;;;6.30;4.50;;;;;;;1.39;79.18;102286.66;5008328;28;20238;-83
2023/11/22 10:37:44;;;;;;;6.30;3.93;;;;;;;1.47;79.05;102289.25;5006799;28;20234;-83
2023/11/22 10:40:13;;;;;;;5.87;4.10;;;;;;;1.53;78.99;102307.66;5009277;28;20206;-82
2023/11/22 10:42:42;;;;;;;6.03;3.70;;;;;;;1.57;78.58;102309.41;5006943;28;20218;-82
2023/11/22 10:45:10;;;;;;;5.00;3.80;;;;;;;1.60;77.68;102309.41;5010391;28;20265;-84
2023/11/22 10:47:39;;;;;;;5.40;3.83;;;;;;;1.60;76.97;102296.28;5009080;28;20223;-82
2023/11/22 10:50:07;;;;;;;4.70;3.47;;;;;;;1.61;75.38;102290.16;5008896;28;20203;-82
2023/11/22 10:52:35;;;;;;;5.90;3.83;;;;;;;1.66;75.79;102280.50;5006812;28;20253;-82
2023/11/22 10:55:04;;;;;;;5.33;3.93;;;;;;;1.66;75.50;102270.88;5003635;28;20254;-82
2023/11/22 10:57:33;;;;;;;5.53;4.03;;;;;;;1.71;74.59;102278.75;5006790;28;20229;-83
2023/11/22 11:00:07;;;;;;;7.20;3.90;;;;;;;1.70;74.38;102275.25;5002938;28;20211;-84
2023/11/22 11:02:38;;;;;;;5.50;4.00;;;;;;;1.66;73.53;102280.50;5005417;28;20207;-84
2023/11/22 11:05:15;;;;;;;5.17;4.17;;;;;;;1.59;73.08;102270.91;5006925;28;20207;-81
2023/11/22 11:07:46;;;;;;;6.03;4.10;;;;;;;1.62;72.25;102268.25;5006675;28;20310;-83
2023/11/22 11:10:14;;;;;;;5.57;4.37;;;;;;;1.66;72.38;102267.38;5008132;28;20206;-81
2023/11/22 11:12:41;;;;;;;5.47;4.00;;;;;;;1.66;72.96;102259.50;5005428;28;20606;-82
2023/11/22 11:15:10;;;;;;;6.03;4.13;;;;;;;1.65;72.82;102236.72;5012215;28;20606;-82
2023/11/22 11:17:39;;;;;;;6.60;4.33;;;;;;;1.72;72.25;102244.63;5011021;28;20225;-81
2023/11/22 11:20:06;;;;;;;6.53;4.20;;;;;;;1.71;71.28;102242.00;5013163;28;20214;-80
2023/11/22 11:22:34;;;;;;;5.53;3.90;;;;;;;1.70;72.54;102227.09;5008028;28;20699;-80
2023/11/22 11:25:04;;;;;;;7.33;4.07;;;;;;;1.70;71.26;102214.84;5011181;28;20211;-83
2023/11/22 11:27:35;;;;;;;5.43;3.80;;;;;;;1.70;71.49;102224.47;5012154;28;20230;-82